Anton, TX (79313)

3:41 AM CDT on July 26, 2016 (GMT -0500)
WT_Meso | | Change Station

Elev 3404 ft 33.73 °N, 102.19 °W | Updated 36 minutes ago

Mostly Cloudy
Mostly Cloudy
73 °F
Feels Like 75 °F
N
8
Wind Variable Wind from NNW
Gusts 10.0 mph

Today
High -- | Low -- °F
--% Chance of Precip.
Yesterday
High -- | Low -- °F
Precip. -- in
Pressure 29.94 in
Visibility 10.0 miles
Clouds Scattered Clouds 7000 ft
Scattered Clouds 11000 ft
Mostly Cloudy 19000 ft
Heat Index 75 °F
Dew Point 62 °F
Humidity 70%
Rainfall in
Snow Depth Not available.
6:56 AM 8:53 PM
Waning Gibbous, 57% visible
METAR KLBB 260753Z 35008KT 10SM SCT070 SCT110 BKN190 24/16 A3011 RMK AO2 SLP136 OCNL LTGICCG DSNT W CB DSNT W MOV STNRY T02440156
Pressure 29.94 in
Visibility 10.0 miles
Clouds Scattered Clouds 7000 ft
Scattered Clouds 11000 ft
Mostly Cloudy 19000 ft
Heat Index 75 °F
Dew Point 62 °F
Humidity 70%
Rainfall in
Snow Depth Not available.
6:56 AM 8:53 PM
Waning Gibbous, 57% visible
METAR KLBB 260753Z 35008KT 10SM SCT070 SCT110 BKN190 24/16 A3011 RMK AO2 SLP136 OCNL LTGICCG DSNT W CB DSNT W MOV STNRY T02440156

10-Day Weather Forecast

Almanac

Astronomy

Jul. 26, 2016 Rise Set
Actual Time
Civil Twilight
Nautical Twilight
Astronomical Twilight
Moon
Length of Visible Light
Length of Day
Tomorrow will be .
, % of the Moon is Illuminated

Today's Extremes

State Highs State Lows

Community

WunderPhotos

Upload Photos

1,927,556 photos uploaded!

WunderBlog® & News

Nearby

Air Quality

  Air Quality AQ Index Pollutant
Not available.

Snow Depth

Station Depth Elevation

Earthquake Activity

City Distance Mag. Time & Date
Minimum magnitude displayed is 2.5.

Coastal Water Temperatures

Place Temperature

Stations

Nearby Weather Stations

Station Location Temp. Windchill Dew Point Humidity Wind Precip. Elev Updated Type
                   

Watches & Warnings

There are currently no watches in effect.